Time,TemperatureF,DewpointF,PressureIn,WindDirection,WindDirectionDegrees,WindSpeedMPH,WindSpeedGustMPH,Humidity,HourlyPrecipIn,Conditions,Clouds,dailyrainin,SoftwareType,DateUTC
2013-04-24 00:01:00,55.9,53.9,30.52,SE,131,0.0,0.0,93,0.06,RA,FEW,0.01,WeatherDisplay:10.37,2013-04-24 04:01:00,
2013-04-24 00:02:00,55.9,53.9,30.52,SE,131,0.0,0.0,93,0.06,RA,FEW,0.01,WeatherDisplay:10.37,2013-04-24 04:02:00,
2013-04-24 00:03:00,55.9,53.9,30.52,SE,131,0.0,0.0,93,0.06,RA,FEW,0.01,WeatherDisplay:10.37,2013-04-24 04:03:00,
2013-04-24 00:08:00,55.9,54.2,30.52,SE,131,0.0,0.0,94,0.05,RA,FEW,0.01,WeatherDisplay:10.37,2013-04-24 04:08:00,
2013-04-24 00:09:00,55.9,54.2,30.52,SE,131,1.2,1.2,94,0.05,RA,FEW,0.01,WeatherDisplay:10.37,2013-04-24 04:09:00,
2013-04-24 00:11:00,55.9,54.2,30.52,SE,131,0.0,0.0,94,0.05,OVC,FEW,0.01,WeatherDisplay:10.37,2013-04-24 04:11:00,
2013-04-24 00:16:00,55.8,54.1,30.51,SE,131,1.2,1.2,94,0.04,OVC,FEW,0.01,WeatherDisplay:10.37,2013-04-24 04:16:00,
2013-04-24 00:21:00,55.8,54.1,30.51,SE,131,0.0,0.0,94,0.04,RA,FEW,0.02,WeatherDisplay:10.37,2013-04-24 04:21:00,
2013-04-24 00:26:00,55.8,54.1,30.51,SE,134,0.0,0.0,94,0.05,RA,FEW,0.04,WeatherDisplay:10.37,2013-04-24 04:26:00,
2013-04-24 00:31:00,55.7,54.0,30.51,SE,134,0.0,0.0,94,0.05,RA,FEW,0.05,WeatherDisplay:10.37,2013-04-24 04:31:00,
2013-04-24 00:36:00,55.7,54.0,30.51,SE,134,0.0,0.0,94,0.06,RA,FEW,0.06,WeatherDisplay:10.37,2013-04-24 04:36:00,
2013-04-24 00:41:00,55.7,54.0,30.50,SE,134,0.0,0.0,94,0.06,RA,FEW,0.06,WeatherDisplay:10.37,2013-04-24 04:41:00,
2013-04-24 00:46:00,55.6,53.9,30.50,SE,134,1.2,1.2,94,0.06,OVC,FEW,0.06,WeatherDisplay:10.37,2013-04-24 04:46:00,
2013-04-24 00:51:00,55.6,54.2,30.50,SE,139,1.2,1.2,95,0.07,RA,FEW,0.07,WeatherDisplay:10.37,2013-04-24 04:51:00,
2013-04-24 00:56:00,55.5,54.1,30.50,SSE,153,3.5,3.5,95,0.07,RA,FEW,0.07,WeatherDisplay:10.37,2013-04-24 04:56:00,
2013-04-24 01:01:00,55.5,54.1,30.50,SSE,167,1.2,1.2,95,0.07,RA,FEW,0.08,WeatherDisplay:10.37,2013-04-24 05:01:00,
2013-04-24 01:06:00,55.5,54.1,30.49,NE,45,2.3,2.3,95,0.07,RA,FEW,0.09,WeatherDisplay:10.37,2013-04-24 05:06:00,
2013-04-24 01:11:00,55.5,54.1,30.49,SSE,148,2.3,2.3,95,0.09,RA,FEW,0.10,WeatherDisplay:10.37,2013-04-24 05:11:00,
2013-04-24 01:16:00,55.5,54.1,30.50,WNW,301,2.3,0.0,95,0.10,RA,FEW,0.12,WeatherDisplay:10.37,2013-04-24 05:16:00,
2013-04-24 01:21:00,55.5,54.1,30.49,ENE,61,1.2,1.2,95,0.11,RA,FEW,0.13,WeatherDisplay:10.37,2013-04-24 05:21:00,
2013-04-24 01:26:00,55.5,54.1,30.49,ESE,123,2.3,2.3,95,0.10,RA,FEW,0.14,WeatherDisplay:10.37,2013-04-24 05:26:00,
2013-04-24 01:31:00,55.5,54.1,30.49,SW,218,1.2,1.2,95,0.10,RA,FEW,0.15,WeatherDisplay:10.37,2013-04-24 05:31:00,
2013-04-24 01:36:00,55.5,54.1,30.49,SSE,155,3.5,3.5,95,0.09,RA,FEW,0.16,WeatherDisplay:10.37,2013-04-24 05:36:00,
2013-04-24 01:41:00,55.5,54.1,30.48,SE,141,2.3,2.3,95,0.10,RA,FEW,0.16,WeatherDisplay:10.37,2013-04-24 05:41:00,
2013-04-24 01:46:00,55.5,54.1,30.48,SSE,152,3.5,3.5,95,0.10,RA,FEW,0.17,WeatherDisplay:10.37,2013-04-24 05:46:00,
2013-04-24 01:51:00,55.5,54.4,30.48,SSE,147,5.8,5.8,96,0.11,RA,FEW,0.17,WeatherDisplay:10.37,2013-04-24 05:51:00,
2013-04-24 01:56:00,55.5,54.4,30.47,SE,127,4.6,4.6,96,0.12,RA,FEW,0.19,WeatherDisplay:10.37,2013-04-24 05:56:00,
2013-04-24 02:01:00,55.5,54.4,30.48,SSW,210,5.8,5.8,96,0.13,RA,FEW,0.20,WeatherDisplay:10.37,2013-04-24 06:01:00,
2013-04-24 02:06:00,55.6,54.5,30.47,SSE,150,3.5,3.5,96,0.13,RA,FEW,0.21,WeatherDisplay:10.37,2013-04-24 06:06:00,
2013-04-24 02:11:00,55.6,54.5,30.47,SW,226,3.5,3.5,96,0.12,RA,FEW,0.21,WeatherDisplay:10.37,2013-04-24 06:11:00,
2013-04-24 02:16:00,55.6,54.5,30.46,SSW,198,2.3,2.3,96,0.11,RA,FEW,0.22,WeatherDisplay:10.37,2013-04-24 06:16:00,
2013-04-24 02:21:00,55.6,54.5,30.46,SSE,167,3.5,3.5,96,0.09,RA,FEW,0.22,WeatherDisplay:10.37,2013-04-24 06:21:00,
2013-04-24 02:26:00,55.7,54.6,30.45,SSE,157,3.5,3.5,96,0.08,OVC,FEW,0.22,WeatherDisplay:10.37,2013-04-24 06:26:00,
2013-04-24 02:31:00,55.7,54.6,30.45,SSW,212,3.5,3.5,96,0.07,OVC,FEW,0.22,WeatherDisplay:10.37,2013-04-24 06:31:00,
2013-04-24 02:36:00,55.7,54.6,30.45,SW,236,8.1,8.1,96,0.07,OVC,FEW,0.22,WeatherDisplay:10.37,2013-04-24 06:36:00,
2013-04-24 02:41:00,55.8,54.7,30.44,SW,236,4.0,4.0,96,0.06,OVC,FEW,0.22,WeatherDisplay:10.37,2013-04-24 06:41:00,
2013-04-24 02:46:00,55.8,54.4,30.44,South,188,5.8,5.8,95,0.06,OVC,FEW,0.22,WeatherDisplay:10.37,2013-04-24 06:46:00,
2013-04-24 02:51:00,55.8,54.4,30.44,SSW,205,5.8,5.8,95,0.05,OVC,FEW,0.22,WeatherDisplay:10.37,2013-04-24 06:51:00,
2013-04-24 02:56:00,55.8,54.4,30.44,South,175,5.8,5.8,95,0.03,OVC,FEW,0.22,WeatherDisplay:10.37,2013-04-24 06:56:00,
2013-04-24 03:01:00,55.8,54.4,30.43,SW,218,6.9,6.9,95,0.02,OVC,FEW,0.23,WeatherDisplay:10.37,2013-04-24 07:01:00,
2013-04-24 03:06:00,55.8,54.1,30.43,SW,225,11.5,11.5,94,0.02,RA,FEW,0.23,WeatherDisplay:10.37,2013-04-24 07:06:00,
2013-04-24 03:11:00,55.9,54.2,30.43,WSW,239,5.8,5.8,94,0.02,RA,FEW,0.23,WeatherDisplay:10.37,2013-04-24 07:11:00,
2013-04-24 03:16:00,56.0,54.3,30.43,WSW,238,5.8,5.8,94,0.01,OVC,FEW,0.23,WeatherDisplay:10.37,2013-04-24 07:16:00,
2013-04-24 03:21:00,56.1,54.4,30.43,WNW,284,2.0,2.0,94,0.01,OVC,FEW,0.23,WeatherDisplay:10.37,2013-04-24 07:21:00,
2013-04-24 03:26:00,56.1,54.4,30.44,WNW,296,5.0,5.0,94,0.01,OVC,FEW,0.23,WeatherDisplay:10.37,2013-04-24 07:26:00,
2013-04-24 03:31:00,53.2,49.4,30.44,NNE,17,11.5,11.5,87,0.02,RA,FEW,0.24,WeatherDisplay:10.37,2013-04-24 07:31:00,
2013-04-24 03:36:00,50.1,47.0,30.45,NNE,25,11.5,11.5,89,0.02,RA,FEW,0.24,WeatherDisplay:10.37,2013-04-24 07:36:00,
2013-04-24 03:41:00,48.7,46.5,30.45,North,11,9.2,9.2,92,0.03,RA,FEW,0.25,WeatherDisplay:10.37,2013-04-24 07:41:00,
2013-04-24 03:46:00,47.9,45.7,30.45,NNE,18,9.2,9.2,92,0.03,RA,FEW,0.25,WeatherDisplay:10.37,2013-04-24 07:46:00,
2013-04-24 03:51:00,47.5,45.6,30.45,NW,315,7.0,7.0,93,0.03,OVC,FEW,0.25,WeatherDisplay:10.37,2013-04-24 07:51:00,
2013-04-24 03:56:00,47.2,45.6,30.46,NNE,33,6.9,6.9,94,0.03,OVC,FEW,0.25,WeatherDisplay:10.37,2013-04-24 07:56:00,
2013-04-24 04:01:00,47.0,45.4,30.46,NNE,13,6.0,6.0,94,0.03,OVC,FEW,0.25,WeatherDisplay:10.37,2013-04-24 08:01:00,
2013-04-24 04:06:00,46.8,45.2,30.45,NNE,29,6.9,6.9,94,0.02,OVC,FEW,0.25,WeatherDisplay:10.37,2013-04-24 08:06:00,
2013-04-24 04:11:00,46.7,45.1,30.45,NNE,33,9.2,9.2,94,0.02,OVC,FEW,0.25,WeatherDisplay:10.37,2013-04-24 08:11:00,
2013-04-24 04:16:00,46.5,44.9,30.45,NNE,29,11.5,11.5,94,0.02,OVC,FEW,0.25,WeatherDisplay:10.37,2013-04-24 08:16:00,
2013-04-24 04:21:00,46.1,44.5,30.44,NNE,18,10.4,10.4,94,0.02,OVC,FEW,0.25,WeatherDisplay:10.37,2013-04-24 08:21:00,
2013-04-24 04:26:00,45.9,44.3,30.45,NNE,22,10.4,10.4,94,0.02,OVC,FEW,0.25,WeatherDisplay:10.37,2013-04-24 08:26:00,
2013-04-24 04:31:00,45.7,44.1,30.46,NW,304,11.5,11.5,94,0.01,OVC,FEW,0.25,WeatherDisplay:10.37,2013-04-24 08:31:00,
2013-04-24 04:36:00,45.4,43.8,30.46,NNE,20,12.7,12.7,94,0.01,OVC,FEW,0.25,WeatherDisplay:10.37,2013-04-24 08:36:00,
2013-04-24 04:41:00,45.2,43.6,30.45,NW,311,10.4,10.4,94,0.00,OVC,FEW,0.25,WeatherDisplay:10.37,2013-04-24 08:41:00,
2013-04-24 04:46:00,45.0,43.1,30.47,NE,47,11.5,11.5,93,0.00,OVC,FEW,0.25,WeatherDisplay:10.37,2013-04-24 08:46:00,
2013-04-24 04:51:00,44.8,42.9,30.46,WNW,302,12.7,12.7,93,0.00,OVC,FEW,0.25,WeatherDisplay:10.37,2013-04-24 08:51:00,
2013-04-24 04:56:00,44.6,42.7,30.47,North,4,8.0,8.0,93,0.00,OVC,FEW,0.25,WeatherDisplay:10.37,2013-04-24 08:56:00,
2013-04-24 05:01:00,44.4,42.5,30.47,NNE,23,8.1,8.1,93,0.00,OVC,FEW,0.25,WeatherDisplay:10.37,2013-04-24 09:01:00,
2013-04-24 05:06:00,44.2,42.3,30.48,NE,50,13.8,13.8,93,0.00,OVC,FEW,0.25,WeatherDisplay:10.37,2013-04-24 09:06:00,
2013-04-24 05:11:00,43.9,42.0,30.48,NNE,30,10.0,10.0,93,0.00,OVC,FEW,0.25,WeatherDisplay:10.37,2013-04-24 09:11:00,
2013-04-24 05:16:00,43.6,41.7,30.48,NNE,27,13.8,13.8,93,0.00,OVC,FEW,0.25,WeatherDisplay:10.37,2013-04-24 09:16:00,
2013-04-24 05:21:00,43.4,41.8,30.49,NE,40,8.1,8.1,94,0.00,OVC,FEW,0.25,WeatherDisplay:10.37,2013-04-24 09:21:00,
2013-04-24 05:26:00,43.0,41.1,30.48,NE,47,8.1,8.1,93,0.00,OVC,FEW,0.25,WeatherDisplay:10.37,2013-04-24 09:26:00,
2013-04-24 05:31:00,42.7,41.1,30.49,NNE,25,10.4,10.4,94,0.00,OVC,FEW,0.25,WeatherDisplay:10.37,2013-04-24 09:31:00,
2013-04-24 05:36:00,43.5,41.9,30.48,NNE,18,2.3,2.3,94,0.00,OVC,FEW,0.25,WeatherDisplay:10.37,2013-04-24 09:36:00,
2013-04-24 05:41:00,43.5,41.9,30.48,NNE,18,2.3,2.3,94,0.00,OVC,FEW,0.25,WeatherDisplay:10.37,2013-04-24 09:41:00,
2013-04-24 05:46:00,43.5,41.9,30.49,North,0,0.0,0.0,94,0.00,OVC,FEW,0.25,WeatherDisplay:10.37,2013-04-24 09:46:00,
2013-04-24 05:51:00,43.5,41.9,30.49,North,0,0.0,0.0,94,0.00,OVC,FEW,0.25,WeatherDisplay:10.37,2013-04-24 09:51:00,
2013-04-24 05:56:00,43.5,41.9,30.49,North,0,0.0,0.0,94,0.00,OVC,FEW,0.25,WeatherDisplay:10.37,2013-04-24 09:56:00,
2013-04-24 06:01:00,43.5,41.9,30.50,North,0,0.0,0.0,94,0.00,OVC,FEW,0.25,WeatherDisplay:10.37,2013-04-24 10:01:00,
2013-04-24 06:06:00,43.5,41.9,30.50,North,0,0.0,0.0,94,0.00,OVC,FEW,0.25,WeatherDisplay:10.37,2013-04-24 10:06:00,
2013-04-24 06:11:00,43.5,41.9,30.50,North,0,0.0,0.0,94,0.00,OVC,FEW,0.25,WeatherDisplay:10.37,2013-04-24 10:11:00,
2013-04-24 06:16:00,43.5,41.9,30.50,North,0,0.0,0.0,94,0.00,OVC,FEW,0.25,WeatherDisplay:10.37,2013-04-24 10:16:00,
2013-04-24 06:21:00,43.5,41.9,30.50,North,0,0.0,0.0,94,0.00,OVC,FEW,0.25,WeatherDisplay:10.37,2013-04-24 10:21:00,
2013-04-24 06:26:00,43.5,41.9,30.51,North,0,0.0,0.0,94,0.00,OVC,FEW,0.25,WeatherDisplay:10.37,2013-04-24 10:26:00,
2013-04-24 06:31:00,43.5,41.9,30.51,North,0,0.0,0.0,94,0.00,OVC,FEW,0.25,WeatherDisplay:10.37,2013-04-24 10:31:00,
2013-04-24 06:36:00,43.5,41.9,30.51,North,0,0.0,0.0,94,0.00,OVC,FEW,0.25,WeatherDisplay:10.37,2013-04-24 10:36:00,
2013-04-24 06:41:00,43.5,41.9,30.51,North,0,0.0,0.0,94,0.00,OVC,FEW,0.25,WeatherDisplay:10.37,2013-04-24 10:41:00,
2013-04-24 06:46:00,43.5,41.9,30.50,North,0,0.0,0.0,94,0.00,OVC,FEW,0.25,WeatherDisplay:10.37,2013-04-24 10:46:00,
2013-04-24 06:51:00,43.5,41.9,30.50,North,0,0.0,0.0,94,0.00,OVC,FEW,0.25,WeatherDisplay:10.37,2013-04-24 10:51:00,
2013-04-24 06:56:00,43.5,41.9,30.51,North,0,0.0,0.0,94,0.00,OVC,FEW,0.25,WeatherDisplay:10.37,2013-04-24 10:56:00,
2013-04-24 07:01:00,43.5,41.9,30.50,North,0,0.0,0.0,94,0.00,OVC,FEW,0.25,WeatherDisplay:10.37,2013-04-24 11:01:00,
2013-04-24 07:06:00,43.5,41.9,30.51,North,0,0.0,0.0,94,0.00,OVC,FEW,0.25,WeatherDisplay:10.37,2013-04-24 11:06:00,
2013-04-24 07:11:00,43.5,41.9,30.50,North,0,0.0,0.0,94,0.00,OVC,FEW,0.25,WeatherDisplay:10.37,2013-04-24 11:11:00,
2013-04-24 07:16:00,43.5,41.9,30.50,North,0,0.0,0.0,94,0.00,OVC,FEW,0.25,WeatherDisplay:10.37,2013-04-24 11:16:00,
2013-04-24 07:21:00,43.5,41.9,30.51,North,0,0.0,0.0,94,0.00,OVC,FEW,0.25,WeatherDisplay:10.37,2013-04-24 11:21:00,
2013-04-24 07:26:00,43.5,41.9,30.51,North,0,0.0,0.0,94,0.00,OVC,FEW,0.25,WeatherDisplay:10.37,2013-04-24 11:26:00,
2013-04-24 07:31:00,43.5,41.9,30.51,North,0,0.0,0.0,94,0.00,OVC,FEW,0.25,WeatherDisplay:10.37,2013-04-24 11:31:00,
2013-04-24 07:36:00,43.5,41.9,30.52,North,0,0.0,0.0,94,0.00,OVC,FEW,0.25,WeatherDisplay:10.37,2013-04-24 11:36:00,
2013-04-24 07:41:00,43.5,41.9,30.52,North,0,0.0,0.0,94,0.00,OVC,FEW,0.25,WeatherDisplay:10.37,2013-04-24 11:41:00,
2013-04-24 07:46:00,43.5,41.9,30.52,North,0,0.0,0.0,94,0.00,OVC,FEW,0.25,WeatherDisplay:10.37,2013-04-24 11:46:00,
2013-04-24 07:51:00,43.5,41.9,30.53,North,0,0.0,0.0,94,0.00,OVC,FEW,0.25,WeatherDisplay:10.37,2013-04-24 11:51:00,
2013-04-24 07:56:00,43.5,41.9,30.53,North,0,0.0,0.0,94,0.00,OVC,FEW,0.25,WeatherDisplay:10.37,2013-04-24 11:56:00,
2013-04-24 08:01:00,43.5,41.9,30.53,North,0,0.0,0.0,94,0.00,OVC,FEW,0.25,WeatherDisplay:10.37,2013-04-24 12:01:00,
2013-04-24 08:06:00,43.5,41.9,30.53,North,0,0.0,0.0,94,0.00,OVC,FEW,0.25,WeatherDisplay:10.37,2013-04-24 12:06:00,
2013-04-24 08:11:00,43.5,41.9,30.53,North,0,0.0,0.0,94,0.00,OVC,FEW,0.25,WeatherDisplay:10.37,2013-04-24 12:11:00,
2013-04-24 08:16:00,43.5,41.9,30.54,North,0,0.0,0.0,94,0.00,OVC,FEW,0.25,WeatherDisplay:10.37,2013-04-24 12:16:00,
2013-04-24 08:21:00,43.5,41.9,30.54,North,0,0.0,0.0,94,0.00,OVC,FEW,0.25,WeatherDisplay:10.37,2013-04-24 12:21:00,
2013-04-24 08:26:00,43.5,41.9,30.54,North,0,0.0,0.0,94,0.00,OVC,FEW,0.25,WeatherDisplay:10.37,2013-04-24 12:26:00,
2013-04-24 08:31:00,43.5,41.9,30.53,North,0,0.0,0.0,94,0.00,OVC,FEW,0.25,WeatherDisplay:10.37,2013-04-24 12:31:00,
2013-04-24 08:36:00,37.5,36.2,30.54,NE,37,3.5,3.6,95,0.00,OVC,FEW,0.25,WeatherDisplay:10.37,2013-04-24 12:36:00,
2013-04-24 08:41:00,37.6,36.3,30.54,North,11,8.1,8.1,95,0.00,OVC,FEW,0.25,WeatherDisplay:10.37,2013-04-24 12:41:00,
2013-04-24 08:46:00,37.5,36.2,30.53,NNE,13,11.5,11.5,95,0.01,RA,FEW,0.26,WeatherDisplay:10.37,2013-04-24 12:46:00,
2013-04-24 08:51:00,37.3,36.0,30.53,West,279,6.9,6.9,95,0.01,RA,FEW,0.26,WeatherDisplay:10.37,2013-04-24 12:51:00,
2013-04-24 08:56:00,37.2,35.9,30.53,NNW,340,8.1,8.1,95,0.01,OVC,FEW,0.26,WeatherDisplay:10.37,2013-04-24 12:56:00,
2013-04-24 09:01:00,37.1,35.8,30.54,North,352,10.4,10.4,95,0.01,OVC,FEW,0.26,WeatherDisplay:10.37,2013-04-24 13:01:00,
2013-04-24 09:06:00,37.1,35.8,30.53,NNW,346,8.1,8.1,95,0.01,OVC,FEW,0.26,WeatherDisplay:10.37,2013-04-24 13:06:00,
2013-04-24 09:11:00,37.1,35.8,30.53,NNW,337,6.9,6.9,95,0.01,OVC,FEW,0.26,WeatherDisplay:10.37,2013-04-24 13:11:00,
2013-04-24 09:16:00,37.1,35.8,30.53,NNW,345,8.1,8.1,95,0.01,OVC,FEW,0.26,WeatherDisplay:10.37,2013-04-24 13:16:00,
2013-04-24 09:21:00,37.1,35.8,30.53,NNW,339,6.9,6.9,95,0.01,OVC,FEW,0.26,WeatherDisplay:10.37,2013-04-24 13:21:00,
2013-04-24 09:26:00,37.1,35.8,30.53,NNE,33,6.9,6.9,95,0.01,OVC,FEW,0.26,WeatherDisplay:10.37,2013-04-24 13:26:00,
2013-04-24 09:31:00,37.0,35.7,30.53,NNW,343,6.9,6.9,95,0.01,OVC,FEW,0.26,WeatherDisplay:10.37,2013-04-24 13:31:00,
2013-04-24 09:36:00,37.1,35.8,30.52,NNE,20,13.0,13.0,95,0.01,OVC,FEW,0.26,WeatherDisplay:10.37,2013-04-24 13:36:00,
2013-04-24 09:41:00,37.1,35.8,30.52,NNE,12,8.1,8.1,95,0.01,OVC,FEW,0.26,WeatherDisplay:10.37,2013-04-24 13:41:00,
2013-04-24 09:46:00,37.2,35.9,30.52,NNE,16,6.9,6.9,95,0.00,OVC,FEW,0.26,WeatherDisplay:10.37,2013-04-24 13:46:00,
2013-04-24 09:51:00,37.2,35.9,30.52,NW,315,8.1,8.1,95,0.00,OVC,FEW,0.26,WeatherDisplay:10.37,2013-04-24 13:51:00,
2013-04-24 09:56:00,37.2,35.9,30.52,NNW,347,7.0,7.0,95,0.00,OVC,FEW,0.26,WeatherDisplay:10.37,2013-04-24 13:56:00,
2013-04-24 10:02:00,37.3,36.0,30.52,NW,309,5.8,5.8,95,0.00,OVC,FEW,0.26,WeatherDisplay:10.37,2013-04-24 14:02:00,
2013-04-24 10:07:00,37.5,36.2,30.52,North,357,4.0,4.0,95,0.00,OVC,FEW,0.26,WeatherDisplay:10.37,2013-04-24 14:07:00,
2013-04-24 10:12:00,37.5,36.2,30.53,North,8,6.0,6.0,95,0.00,OVC,FEW,0.26,WeatherDisplay:10.37,2013-04-24 14:12:00,
2013-04-24 10:17:00,37.5,36.2,30.53,NNW,336,6.9,6.9,95,0.00,OVC,FEW,0.26,WeatherDisplay:10.37,2013-04-24 14:17:00,
2013-04-24 10:22:00,37.2,35.9,30.52,North,360,6.9,6.9,95,0.00,OVC,FEW,0.26,WeatherDisplay:10.37,2013-04-24 14:22:00,
2013-04-24 10:27:00,37.1,35.8,30.52,North,9,10.4,10.4,95,0.00,OVC,FEW,0.26,WeatherDisplay:10.37,2013-04-24 14:27:00,
2013-04-24 10:32:00,36.9,35.6,30.52,NNE,27,9.2,9.2,95,0.00,OVC,FEW,0.26,WeatherDisplay:10.37,2013-04-24 14:32:00,
2013-04-24 10:37:00,36.9,35.6,30.53,NNW,338,6.9,6.9,95,0.00,OVC,FEW,0.26,WeatherDisplay:10.37,2013-04-24 14:37:00,
2013-04-24 10:42:00,36.9,35.6,30.52,NNE,22,5.8,5.8,95,0.01,RA,FEW,0.27,WeatherDisplay:10.37,2013-04-24 14:42:00,
2013-04-24 10:47:00,36.9,35.6,30.52,North,358,6.9,6.9,95,0.01,RA,FEW,0.27,WeatherDisplay:10.37,2013-04-24 14:47:00,
2013-04-24 10:52:00,36.9,35.6,30.52,NNW,334,6.9,6.9,95,0.02,RA,FEW,0.28,WeatherDisplay:10.37,2013-04-24 14:52:00,
2013-04-24 10:57:00,37.1,35.8,30.53,NNE,13,4.6,4.6,95,0.02,RA,FEW,0.28,WeatherDisplay:10.37,2013-04-24 14:57:00,
2013-04-24 11:02:00,37.1,35.8,30.53,NNW,338,6.0,6.0,95,0.02,OVC,FEW,0.28,WeatherDisplay:10.37,2013-04-24 15:02:00,
2013-04-24 11:09:00,37.1,35.8,30.54,NE,54,5.8,5.8,95,0.02,OVC,FEW,0.28,WeatherDisplay:10.37,2013-04-24 15:09:00,
2013-04-24 11:14:00,37.1,35.8,30.54,NW,322,5.8,5.8,95,0.02,OVC,FEW,0.28,WeatherDisplay:10.37,2013-04-24 15:14:00,
2013-04-24 11:19:00,37.0,35.7,30.55,NW,321,8.1,8.1,95,0.03,RA,FEW,0.29,WeatherDisplay:10.37,2013-04-24 15:19:00,
2013-04-24 11:24:00,36.9,35.6,30.54,NNW,335,7.0,7.0,95,0.03,RA,FEW,0.29,WeatherDisplay:10.37,2013-04-24 15:24:00,
2013-04-24 11:29:00,36.5,35.2,30.54,NNW,334,8.1,8.1,95,0.04,RA,FEW,0.30,WeatherDisplay:10.37,2013-04-24 15:29:00,
2013-04-24 11:34:00,36.5,35.2,30.55,NW,324,6.9,6.9,95,0.04,RA,FEW,0.30,WeatherDisplay:10.37,2013-04-24 15:34:00,
2013-04-24 11:39:00,36.4,35.1,30.55,NW,326,8.1,8.1,95,0.03,OVC,FEW,0.30,WeatherDisplay:10.37,2013-04-24 15:39:00,
2013-04-24 11:44:00,36.4,35.1,30.55,NNE,20,5.8,5.8,95,0.03,OVC,FEW,0.30,WeatherDisplay:10.37,2013-04-24 15:44:00,
2013-04-24 11:49:00,36.4,35.1,30.56,NNW,330,6.9,7.3,95,0.04,RA,FEW,0.31,WeatherDisplay:10.37,2013-04-24 15:49:00,
2013-04-24 11:54:00,36.1,34.5,30.56,WNW,300,9.2,9.2,94,0.03,RA,FEW,0.31,WeatherDisplay:10.37,2013-04-24 15:54:00,
2013-04-24 11:59:00,36.1,34.8,30.56,NNW,341,5.8,5.8,95,0.04,RA,FEW,0.32,WeatherDisplay:10.37,2013-04-24 15:59:00,
2013-04-24 12:04:00,36.1,34.8,30.56,NNW,335,3.5,3.5,95,0.05,RA,FEW,0.33,WeatherDisplay:10.37,2013-04-24 16:04:00,
2013-04-24 12:09:00,36.0,34.7,30.56,NNW,343,6.9,6.9,95,0.05,RA,FEW,0.33,WeatherDisplay:10.37,2013-04-24 16:09:00,
2013-04-24 12:14:00,36.0,34.7,30.56,NNW,345,8.1,8.1,95,0.05,OVC,FEW,0.33,WeatherDisplay:10.37,2013-04-24 16:14:00,
2013-04-24 12:19:00,36.0,34.7,30.56,NNE,27,4.6,4.6,95,0.05,RA,FEW,0.34,WeatherDisplay:10.37,2013-04-24 16:19:00,
2013-04-24 12:24:00,36.1,34.8,30.55,NW,314,4.6,4.6,95,0.05,RA,FEW,0.34,WeatherDisplay:10.37,2013-04-24 16:24:00,
2013-04-24 12:29:00,36.1,34.8,30.55,West,263,9.2,9.2,95,0.04,OVC,FEW,0.34,WeatherDisplay:10.37,2013-04-24 16:29:00,
2013-04-24 12:34:00,35.9,34.6,30.55,NW,314,9.2,9.2,95,0.05,RA,FEW,0.35,WeatherDisplay:10.37,2013-04-24 16:34:00,
2013-04-24 12:39:00,36.1,34.8,30.55,NNW,336,4.6,4.6,95,0.05,RA,FEW,0.35,WeatherDisplay:10.37,2013-04-24 16:39:00,
2013-04-24 12:44:00,36.2,34.9,30.54,NW,321,5.8,5.8,95,0.05,OVC,FEW,0.35,WeatherDisplay:10.37,2013-04-24 16:44:00,
2013-04-24 12:49:00,36.1,34.8,30.54,WNW,300,11.5,11.5,95,0.05,RA,FEW,0.36,WeatherDisplay:10.37,2013-04-24 16:49:00,
2013-04-24 12:54:00,35.9,34.6,30.54,NW,321,6.9,6.9,95,0.05,RA,FEW,0.36,WeatherDisplay:10.37,2013-04-24 16:54:00,
2013-04-24 12:59:00,35.8,34.5,30.54,NNW,339,10.4,10.4,95,0.04,OVC,FEW,0.36,WeatherDisplay:10.37,2013-04-24 16:59:00,
2013-04-24 13:04:00,35.7,34.4,30.55,NNE,18,8.1,8.1,95,0.03,OVC,FEW,0.36,WeatherDisplay:10.37,2013-04-24 17:04:00,
2013-04-24 13:09:00,35.8,34.5,30.56,NW,314,9.0,9.0,95,0.03,OVC,FEW,0.36,WeatherDisplay:10.37,2013-04-24 17:09:00,
2013-04-24 13:14:00,35.8,34.5,30.56,WNW,300,6.9,6.9,95,0.03,OVC,FEW,0.36,WeatherDisplay:10.37,2013-04-24 17:14:00,
2013-04-24 13:19:00,35.9,34.6,30.55,NW,318,8.1,8.1,95,0.02,OVC,FEW,0.36,WeatherDisplay:10.37,2013-04-24 17:19:00,
2013-04-24 13:24:00,35.9,34.6,30.56,NNW,340,8.1,8.1,95,0.03,RA,FEW,0.37,WeatherDisplay:10.37,2013-04-24 17:24:00,
2013-04-24 13:29:00,36.2,34.9,30.56,NW,322,5.8,5.8,95,0.03,RA,FEW,0.37,WeatherDisplay:10.37,2013-04-24 17:29:00,
2013-04-24 13:34:00,36.4,35.1,30.56,NNW,328,11.5,11.5,95,0.02,OVC,FEW,0.37,WeatherDisplay:10.37,2013-04-24 17:34:00,
2013-04-24 13:39:00,36.1,34.5,30.57,NNW,339,10.4,10.4,94,0.02,OVC,FEW,0.37,WeatherDisplay:10.37,2013-04-24 17:39:00,
2013-04-24 13:44:00,36.1,34.8,30.57,NW,304,11.5,11.5,95,0.02,OVC,FEW,0.37,WeatherDisplay:10.37,2013-04-24 17:44:00,
2013-04-24 13:49:00,36.0,34.4,30.58,NW,308,6.9,6.9,94,0.01,OVC,FEW,0.37,WeatherDisplay:10.37,2013-04-24 17:49:00,
2013-04-24 13:54:00,36.0,34.4,30.58,NW,304,9.2,9.2,94,0.01,OVC,FEW,0.37,WeatherDisplay:10.37,2013-04-24 17:54:00,
2013-04-24 13:59:00,36.1,34.5,30.57,NNW,336,9.2,9.2,94,0.01,OVC,FEW,0.37,WeatherDisplay:10.37,2013-04-24 17:59:00,
2013-04-24 14:04:00,36.0,34.4,30.58,NW,321,12.7,12.7,94,0.01,OVC,FEW,0.37,WeatherDisplay:10.37,2013-04-24 18:04:00,
2013-04-24 14:09:00,36.1,34.5,30.59,NNW,328,11.5,11.5,94,0.01,OVC,FEW,0.37,WeatherDisplay:10.37,2013-04-24 18:09:00,
2013-04-24 14:14:00,36.2,34.6,30.59,NW,309,8.1,8.1,94,0.01,OVC,FEW,0.37,WeatherDisplay:10.37,2013-04-24 18:14:00,
2013-04-24 14:19:00,36.4,34.8,30.58,WNW,296,9.2,9.2,94,0.01,OVC,FEW,0.37,WeatherDisplay:10.37,2013-04-24 18:19:00,
2013-04-24 14:24:00,36.5,34.9,30.58,NW,318,8.0,8.0,94,0.01,RA,FEW,0.38,WeatherDisplay:10.37,2013-04-24 18:24:00,
2013-04-24 14:29:00,36.6,35.0,30.59,WNW,291,6.9,6.9,94,0.01,RA,FEW,0.38,WeatherDisplay:10.37,2013-04-24 18:29:00,
2013-04-24 14:34:00,36.8,35.2,30.59,NNW,330,6.9,6.9,94,0.01,OVC,FEW,0.38,WeatherDisplay:10.37,2013-04-24 18:34:00,
2013-04-24 14:39:00,37.3,35.7,30.59,NNW,329,3.5,3.5,94,0.01,OVC,FEW,0.38,WeatherDisplay:10.37,2013-04-24 18:39:00,
2013-04-24 14:44:00,37.3,35.5,30.59,WNW,298,11.5,11.5,93,0.01,OVC,FEW,0.38,WeatherDisplay:10.37,2013-04-24 18:44:00,
2013-04-24 14:49:00,37.1,35.0,30.59,NNE,20,10.4,10.4,92,0.01,OVC,FEW,0.38,WeatherDisplay:10.37,2013-04-24 18:49:00,
2013-04-24 14:54:00,37.2,35.4,30.59,NW,312,8.1,8.1,93,0.01,OVC,FEW,0.38,WeatherDisplay:10.37,2013-04-24 18:54:00,
2013-04-24 14:59:00,37.1,35.3,30.59,NW,314,10.4,10.4,93,0.01,OVC,FEW,0.38,WeatherDisplay:10.37,2013-04-24 18:59:00,
2013-04-24 15:04:00,37.0,35.2,30.60,NNE,13,10.4,10.4,93,0.01,OVC,FEW,0.38,WeatherDisplay:10.37,2013-04-24 19:04:00,
2013-04-24 15:09:00,37.1,35.3,30.60,NW,309,15.0,15.0,93,0.01,OVC,FEW,0.38,WeatherDisplay:10.37,2013-04-24 19:09:00,
2013-04-24 15:14:00,36.8,34.7,30.61,NNW,343,13.8,13.8,92,0.01,OVC,FEW,0.38,WeatherDisplay:10.37,2013-04-24 19:14:00,
2013-04-24 15:19:00,36.6,34.5,30.61,NNW,335,11.5,11.5,92,0.01,OVC,FEW,0.38,WeatherDisplay:10.37,2013-04-24 19:19:00,
2013-04-24 15:24:00,36.6,34.5,30.61,West,266,10.4,10.4,92,0.00,OVC,FEW,0.38,WeatherDisplay:10.37,2013-04-24 19:24:00,
2013-04-24 15:29:00,36.5,34.4,30.61,NW,322,11.5,11.5,92,0.00,OVC,FEW,0.38,WeatherDisplay:10.37,2013-04-24 19:29:00,
2013-04-24 15:34:00,36.5,34.7,30.61,WNW,301,6.0,6.0,93,0.00,OVC,FEW,0.38,WeatherDisplay:10.37,2013-04-24 19:34:00,
2013-04-24 15:39:00,36.5,34.7,30.61,NNW,329,10.4,10.4,93,0.00,OVC,FEW,0.38,WeatherDisplay:10.37,2013-04-24 19:39:00,
2013-04-24 15:44:00,36.8,35.0,30.62,NW,307,6.0,6.0,93,0.00,OVC,FEW,0.38,WeatherDisplay:10.37,2013-04-24 19:44:00,
2013-04-24 15:49:00,36.8,35.0,30.62,WNW,298,10.4,10.4,93,0.01,RA,FEW,0.39,WeatherDisplay:10.37,2013-04-24 19:49:00,
2013-04-24 15:54:00,36.7,34.9,30.63,NNW,339,9.0,9.0,93,0.01,RA,FEW,0.39,WeatherDisplay:10.37,2013-04-24 19:54:00,
2013-04-24 15:59:00,36.7,34.9,30.63,NW,312,11.0,11.0,93,0.01,OVC,FEW,0.39,WeatherDisplay:10.37,2013-04-24 19:59:00,
2013-04-24 16:04:00,36.6,34.8,30.63,SW,215,8.1,8.1,93,0.01,OVC,FEW,0.39,WeatherDisplay:10.37,2013-04-24 20:04:00,
2013-04-24 16:09:00,36.5,34.7,30.63,NNW,347,5.8,5.8,93,0.01,OVC,FEW,0.40,WeatherDisplay:10.37,2013-04-24 20:09:00,
2013-04-24 16:14:00,36.8,35.2,30.64,North,349,5.8,5.8,94,0.02,RA,FEW,0.40,WeatherDisplay:10.37,2013-04-24 20:14:00,
2013-04-24 16:19:00,36.8,35.0,30.64,WNW,288,6.9,6.9,93,0.02,RA,FEW,0.40,WeatherDisplay:10.37,2013-04-24 20:19:00,
2013-04-24 16:24:00,36.9,35.3,30.64,NNW,338,6.9,6.9,94,0.02,OVC,FEW,0.40,WeatherDisplay:10.37,2013-04-24 20:24:00,
2013-04-24 16:29:00,37.1,35.5,30.64,West,272,5.0,5.0,94,0.02,OVC,FEW,0.40,WeatherDisplay:10.37,2013-04-24 20:29:00,
2013-04-24 16:34:00,37.3,35.7,30.65,WNW,283,9.0,9.0,94,0.03,RA,FEW,0.41,WeatherDisplay:10.37,2013-04-24 20:34:00,
2013-04-24 16:39:00,37.5,35.7,30.65,NE,44,8.1,8.1,93,0.03,RA,FEW,0.41,WeatherDisplay:10.37,2013-04-24 20:39:00,
2013-04-24 16:44:00,37.9,36.3,30.65,North,354,5.0,5.0,94,0.03,OVC,FEW,0.41,WeatherDisplay:10.37,2013-04-24 20:44:00,
2013-04-24 16:49:00,37.9,36.1,30.66,WNW,296,9.2,9.2,93,0.02,OVC,FEW,0.41,WeatherDisplay:10.37,2013-04-24 20:49:00,
2013-04-24 16:54:00,38.3,36.7,30.66,WNW,300,4.6,4.6,94,0.02,OVC,FEW,0.41,WeatherDisplay:10.37,2013-04-24 20:54:00,
2013-04-24 16:59:00,38.4,36.8,30.66,West,269,10.4,10.4,94,0.02,OVC,FEW,0.41,WeatherDisplay:10.37,2013-04-24 20:59:00,
2013-04-24 17:04:00,38.3,36.5,30.66,WNW,294,9.2,9.2,93,0.02,OVC,FEW,0.41,WeatherDisplay:10.37,2013-04-24 21:04:00,
2013-04-24 17:10:00,38.3,36.2,30.66,NW,304,9.2,9.2,92,0.02,OVC,FEW,0.41,WeatherDisplay:10.37,2013-04-24 21:10:00,
2013-04-24 17:14:00,38.3,36.2,30.66,NNW,331,11.5,11.5,92,0.01,OVC,FEW,0.41,WeatherDisplay:10.37,2013-04-24 21:14:00,
2013-04-24 17:19:00,38.4,36.3,30.66,NW,319,10.4,10.4,92,0.01,OVC,FEW,0.41,WeatherDisplay:10.37,2013-04-24 21:19:00,
2013-04-24 17:24:00,38.6,36.5,30.67,WNW,290,9.2,9.2,92,0.01,OVC,FEW,0.41,WeatherDisplay:10.37,2013-04-24 21:24:00,
2013-04-24 17:30:00,38.7,36.6,30.67,NW,312,11.0,11.0,92,0.01,OVC,FEW,0.41,WeatherDisplay:10.37,2013-04-24 21:30:00,
2013-04-24 17:35:00,38.6,36.2,30.68,West,260,8.1,8.1,91,0.00,OVC,FEW,0.41,WeatherDisplay:10.37,2013-04-24 21:35:00,
2013-04-24 17:40:00,38.7,36.6,30.68,SW,218,8.1,8.1,92,0.00,OVC,FEW,0.41,WeatherDisplay:10.37,2013-04-24 21:40:00,
2013-04-24 17:45:00,38.8,36.4,30.68,SE,124,9.2,9.2,91,0.00,OVC,FEW,0.41,WeatherDisplay:10.37,2013-04-24 21:45:00,
2013-04-24 17:50:00,38.9,36.8,30.68,WNW,302,9.2,9.2,92,0.00,OVC,FEW,0.41,WeatherDisplay:10.37,2013-04-24 21:50:00,
2013-04-24 17:55:00,39.1,37.0,30.68,WNW,300,8.1,8.1,92,0.00,OVC,FEW,0.41,WeatherDisplay:10.37,2013-04-24 21:55:00,
2013-04-24 18:00:00,39.2,36.8,30.68,NW,314,11.5,11.5,91,0.00,OVC,FEW,0.41,WeatherDisplay:10.37,2013-04-24 22:00:00,
2013-04-24 18:05:00,39.4,37.0,30.68,WSW,242,5.0,5.0,91,0.00,OVC,FEW,0.41,WeatherDisplay:10.37,2013-04-24 22:05:00,
2013-04-24 18:10:00,39.5,37.1,30.68,WNW,290,9.2,9.2,91,0.00,OVC,FEW,0.41,WeatherDisplay:10.37,2013-04-24 22:10:00,
2013-04-24 18:15:00,39.7,37.3,30.68,ESE,118,5.0,5.0,91,0.00,OVC,FEW,0.41,WeatherDisplay:10.37,2013-04-24 22:15:00,
2013-04-24 18:20:00,39.9,37.5,30.69,WNW,295,10.0,10.0,91,0.00,OVC,FEW,0.41,WeatherDisplay:10.37,2013-04-24 22:20:00,
2013-04-24 18:25:00,40.0,37.3,30.69,WSW,257,8.1,8.1,90,0.00,OVC,FEW,0.41,WeatherDisplay:10.37,2013-04-24 22:25:00,
2013-04-24 18:30:00,40.1,37.1,30.69,WSW,252,8.1,8.1,89,0.00,OVC,FEW,0.41,WeatherDisplay:10.37,2013-04-24 22:30:00,
2013-04-24 18:35:00,40.2,37.2,30.69,NW,311,9.2,9.2,89,0.00,OVC,FEW,0.41,WeatherDisplay:10.37,2013-04-24 22:35:00,
2013-04-24 18:40:00,40.3,37.0,30.69,WNW,288,11.5,11.5,88,0.00,OVC,FEW,0.41,WeatherDisplay:10.37,2013-04-24 22:40:00,
2013-04-24 18:45:00,40.4,36.8,30.70,SSE,163,9.2,9.2,87,0.00,OVC,FEW,0.41,WeatherDisplay:10.37,2013-04-24 22:45:00,
2013-04-24 18:50:00,40.5,36.9,30.70,West,277,5.8,5.8,87,0.00,OVC,FEW,0.41,WeatherDisplay:10.37,2013-04-24 22:50:00,
2013-04-24 18:55:00,40.7,37.1,30.70,West,260,7.0,7.0,87,0.00,OVC,FEW,0.41,WeatherDisplay:10.37,2013-04-24 22:55:00,
2013-04-24 19:00:00,40.8,36.9,30.71,WNW,285,11.5,11.5,86,0.00,OVC,FEW,0.41,WeatherDisplay:10.37,2013-04-24 23:00:00,
2013-04-24 19:05:00,41.0,37.1,30.71,WNW,283,7.0,7.0,86,0.00,OVC,FEW,0.41,WeatherDisplay:10.37,2013-04-24 23:05:00,
2013-04-24 19:10:00,41.1,36.9,30.71,West,280,9.2,9.2,85,0.00,OVC,FEW,0.41,WeatherDisplay:10.37,2013-04-24 23:10:00,
2013-04-24 19:15:00,41.2,36.7,30.71,WNW,291,6.9,6.9,84,0.00,OVC,FEW,0.41,WeatherDisplay:10.37,2013-04-24 23:15:00,
2013-04-24 19:20:00,41.4,36.6,30.72,WSW,257,5.8,5.8,83,0.00,OVC,FEW,0.41,WeatherDisplay:10.37,2013-04-24 23:20:00,
2013-04-24 19:25:00,41.7,36.6,30.72,WNW,300,7.0,7.0,82,0.00,OVC,FEW,0.41,WeatherDisplay:10.37,2013-04-24 23:25:00,
2013-04-24 19:30:00,42.2,36.5,30.72,WSW,257,9.2,9.2,80,0.00,OVC,FEW,0.41,WeatherDisplay:10.37,2013-04-24 23:30:00,
2013-04-24 19:35:00,42.4,36.3,30.72,WSW,257,8.1,8.1,79,0.00,OVC,FEW,0.41,WeatherDisplay:10.37,2013-04-24 23:35:00,
2013-04-24 19:40:00,42.4,36.0,30.73,WSW,256,5.8,5.8,78,0.00,OVC,FEW,0.41,WeatherDisplay:10.37,2013-04-24 23:40:00,
2013-04-24 19:45:00,42.6,36.2,30.73,WNW,293,3.5,3.5,78,0.00,OVC,FEW,0.41,WeatherDisplay:10.37,2013-04-24 23:45:00,
2013-04-24 19:50:00,42.5,35.8,30.73,WSW,240,5.8,5.8,77,0.00,OVC,FEW,0.41,WeatherDisplay:10.37,2013-04-24 23:50:00,
2013-04-24 19:55:00,42.5,35.8,30.73,WSW,249,4.6,4.6,77,0.00,OVC,FEW,0.41,WeatherDisplay:10.37,2013-04-24 23:55:00,
2013-04-24 20:00:00,42.4,35.7,30.73,SW,226,6.9,6.9,77,0.00,OVC,FEW,0.41,WeatherDisplay:10.37,2013-04-25 00:00:00,
2013-04-24 20:05:00,42.4,35.7,30.74,WNW,293,3.5,3.5,77,0.00,OVC,FEW,0.41,WeatherDisplay:10.37,2013-04-25 00:05:00,
2013-04-24 20:10:00,42.2,35.5,30.74,WSW,248,4.6,4.6,77,0.00,OVC,FEW,0.41,WeatherDisplay:10.37,2013-04-25 00:10:00,
2013-04-24 20:15:00,41.9,35.2,30.74,West,281,3.5,3.6,77,0.00,OVC,FEW,0.41,WeatherDisplay:10.37,2013-04-25 00:15:00,
2013-04-24 20:20:00,41.7,35.0,30.74,SW,215,3.5,3.5,77,0.00,OVC,FEW,0.41,WeatherDisplay:10.37,2013-04-25 00:20:00,
2013-04-24 20:25:00,41.5,34.8,30.75,WSW,257,6.9,6.9,77,0.00,OVC,FEW,0.41,WeatherDisplay:10.37,2013-04-25 00:25:00,
2013-04-24 20:30:00,41.4,34.7,30.75,WSW,238,5.8,5.8,77,0.00,OVC,FEW,0.41,WeatherDisplay:10.37,2013-04-25 00:30:00,
2013-04-24 20:35:00,41.3,34.6,30.75,SW,222,3.5,3.5,77,0.00,OVC,FEW,0.41,WeatherDisplay:10.37,2013-04-25 00:35:00,
2013-04-24 20:40:00,41.2,34.9,30.75,SW,219,3.5,3.5,78,0.00,OVC,FEW,0.41,WeatherDisplay:10.37,2013-04-25 00:40:00,
2013-04-24 20:45:00,41.1,34.8,30.76,WSW,248,3.5,3.5,78,0.00,OVC,FEW,0.41,WeatherDisplay:10.37,2013-04-25 00:45:00,
2013-04-24 20:50:00,41.0,35.0,30.76,SW,226,4.0,4.0,79,0.00,OVC,FEW,0.41,WeatherDisplay:10.37,2013-04-25 00:50:00,
2013-04-24 20:55:00,40.9,34.9,30.76,WSW,249,5.0,5.0,79,0.00,OVC,FEW,0.41,WeatherDisplay:10.37,2013-04-25 00:55:00,
2013-04-24 21:00:00,40.7,34.7,30.76,WSW,239,4.6,4.6,79,0.00,OVC,FEW,0.41,WeatherDisplay:10.37,2013-04-25 01:00:00,
2013-04-24 21:05:00,40.6,34.9,30.77,WSW,238,5.8,5.8,80,0.00,OVC,FEW,0.41,WeatherDisplay:10.37,2013-04-25 01:05:00,
2013-04-24 21:10:00,40.5,34.8,30.77,SW,225,6.9,6.9,80,0.00,OVC,FEW,0.41,WeatherDisplay:10.37,2013-04-25 01:10:00,
2013-04-24 21:15:00,40.5,34.8,30.78,SW,233,5.8,5.8,80,0.00,OVC,FEW,0.41,WeatherDisplay:10.37,2013-04-25 01:15:00,
2013-04-24 21:20:00,40.4,34.7,30.78,SW,225,6.9,6.9,80,0.00,OVC,FEW,0.41,WeatherDisplay:10.37,2013-04-25 01:20:00,
2013-04-24 21:25:00,40.3,34.6,30.78,South,172,4.6,4.6,80,0.00,OVC,FEW,0.41,WeatherDisplay:10.37,2013-04-25 01:25:00,
2013-04-24 21:30:00,40.2,34.5,30.79,SSW,207,5.8,5.8,80,0.00,OVC,FEW,0.41,WeatherDisplay:10.37,2013-04-25 01:30:00,
2013-04-24 21:35:00,40.1,34.7,30.79,SW,217,5.8,5.8,81,0.00,OVC,FEW,0.41,WeatherDisplay:10.37,2013-04-25 01:35:00,
2013-04-24 21:40:00,40.1,34.7,30.79,SW,215,4.6,4.6,81,0.00,OVC,FEW,0.41,WeatherDisplay:10.37,2013-04-25 01:40:00,
2013-04-24 21:45:00,40.1,34.7,30.80,South,170,5.8,5.8,81,0.00,OVC,FEW,0.41,WeatherDisplay:10.37,2013-04-25 01:45:00,
2013-04-24 21:50:00,40.1,34.7,30.80,SW,233,5.8,5.8,81,0.00,OVC,FEW,0.41,WeatherDisplay:10.37,2013-04-25 01:50:00,
2013-04-24 21:55:00,40.2,34.5,30.80,West,260,6.9,6.9,80,0.00,OVC,FEW,0.41,WeatherDisplay:10.37,2013-04-25 01:55:00,
2013-04-24 22:00:00,40.1,34.4,30.80,West,264,5.8,5.8,80,0.00,OVC,FEW,0.41,WeatherDisplay:10.37,2013-04-25 02:00:00,
2013-04-24 22:05:00,40.1,34.1,30.81,WNW,290,8.1,8.1,79,0.00,OVC,FEW,0.41,WeatherDisplay:10.37,2013-04-25 02:05:00,
2013-04-24 22:10:00,40.1,34.1,30.81,South,174,6.9,6.9,79,0.00,OVC,FEW,0.41,WeatherDisplay:10.37,2013-04-25 02:10:00,
2013-04-24 22:15:00,40.0,34.0,30.81,SW,218,6.0,6.0,79,0.00,OVC,FEW,0.41,WeatherDisplay:10.37,2013-04-25 02:15:00,
2013-04-24 22:20:00,40.0,33.7,30.81,SW,219,5.8,5.8,78,0.00,OVC,FEW,0.41,WeatherDisplay:10.37,2013-04-25 02:20:00,
2013-04-24 22:25:00,39.9,33.6,30.82,SSW,210,10.4,10.4,78,0.00,OVC,FEW,0.41,WeatherDisplay:10.37,2013-04-25 02:25:00,
2013-04-24 22:30:00,39.9,33.6,30.82,SW,217,5.8,5.8,78,0.00,OVC,FEW,0.41,WeatherDisplay:10.37,2013-04-25 02:30:00,
2013-04-24 22:35:00,39.8,33.5,30.82,SW,228,8.1,8.1,78,0.00,OVC,FEW,0.41,WeatherDisplay:10.37,2013-04-25 02:35:00,
2013-04-24 22:40:00,39.8,33.5,30.83,SSE,166,8.1,8.1,78,0.00,OVC,FEW,0.41,WeatherDisplay:10.37,2013-04-25 02:40:00,
2013-04-24 22:45:00,39.7,33.4,30.82,SSW,210,8.1,8.1,78,0.00,OVC,FEW,0.41,WeatherDisplay:10.37,2013-04-25 02:45:00,
2013-04-24 22:50:00,39.6,33.3,30.82,WSW,255,6.9,6.9,78,0.00,OVC,FEW,0.41,WeatherDisplay:10.37,2013-04-25 02:50:00,
2013-04-24 22:55:00,39.6,33.0,30.82,SSW,203,8.1,8.1,77,0.00,OVC,FEW,0.41,WeatherDisplay:10.37,2013-04-25 02:55:00,
2013-04-24 23:00:00,39.5,32.9,30.83,SSW,201,8.1,8.1,77,0.00,OVC,FEW,0.41,WeatherDisplay:10.37,2013-04-25 03:00:00,
2013-04-24 23:05:00,39.4,32.8,30.83,WNW,294,10.4,10.4,77,0.00,OVC,FEW,0.41,WeatherDisplay:10.37,2013-04-25 03:05:00,
2013-04-24 23:10:00,39.3,32.7,30.83,SW,218,8.1,8.1,77,0.00,OVC,FEW,0.41,WeatherDisplay:10.37,2013-04-25 03:10:00,
2013-04-24 23:15:00,39.2,32.6,30.83,SSW,204,5.8,5.8,77,0.00,OVC,FEW,0.41,WeatherDisplay:10.37,2013-04-25 03:15:00,
2013-04-24 23:20:00,39.1,32.5,30.84,NW,310,6.9,6.9,77,0.00,OVC,FEW,0.41,WeatherDisplay:10.37,2013-04-25 03:20:00,
2013-04-24 23:25:00,38.9,32.3,30.84,WSW,238,5.8,5.8,77,0.00,OVC,FEW,0.41,WeatherDisplay:10.37,2013-04-25 03:25:00,
2013-04-24 23:30:00,38.9,32.3,30.84,SSW,210,5.8,5.8,77,0.00,OVC,FEW,0.41,WeatherDisplay:10.37,2013-04-25 03:30:00,
2013-04-24 23:35:00,38.8,31.9,30.84,SW,215,4.6,5.0,76,0.00,OVC,FEW,0.41,WeatherDisplay:10.37,2013-04-25 03:35:00,
2013-04-24 23:40:00,38.7,31.8,30.84,WSW,249,8.1,8.1,76,0.00,OVC,FEW,0.41,WeatherDisplay:10.37,2013-04-25 03:40:00,
2013-04-24 23:45:00,38.6,31.7,30.84,WSW,245,4.0,4.0,76,0.00,OVC,FEW,0.41,WeatherDisplay:10.37,2013-04-25 03:45:00,
2013-04-24 23:50:00,38.4,31.5,30.85,West,267,5.0,5.0,76,0.00,OVC,FEW,0.41,WeatherDisplay:10.37,2013-04-25 03:50:00,
2013-04-24 23:55:00,38.4,31.5,30.85,WSW,240,4.6,4.6,76,0.00,OVC,FEW,0.41,WeatherDisplay:10.37,2013-04-25 03:55:00,